This is the latest recevied weather packets stored in our database for station/object KK7MLS-13. If no packets are shown the sender has not sent any weather packets the latest 10 day(s).
| Time | Temp. | Humidity | Pressure | Rain* | Wind** | Luminosity | Snow |
|---|---|---|---|---|---|---|---|
| 1777501960 | 24.44° C | 36% | 1021.3 hPa | 0 mm | - | 575 W/m² | - |
| 1777501657 | 24.44° C | 34% | 1021.5 hPa | 0 mm | - | 581 W/m² | - |
| 1777501353 | 24.44° C | 36% | 1021.7 hPa | 0 mm | - | 592 W/m² | - |
| 1777501051 | 24.44° C | 35% | 1021.7 hPa | 0 mm | - | 604 W/m² | - |
| 1777500749 | 24.44° C | 36% | 1021.8 hPa | 0 mm | - | 614 W/m² | - |
| 1777500446 | 25° C | 32% | 1021.8 hPa | 0 mm | - | 622 W/m² | - |
| 1777500141 | 24.44° C | 36% | 1021.9 hPa | 0 mm | - | 629 W/m² | - |
| 1777499839 | 23.33° C | 39% | 1021.9 hPa | 0 mm | - | 639 W/m² | - |
| 1777499535 | 23.33° C | 36% | 1021.9 hPa | 0 mm | - | 649 W/m² | - |
| 1777499233 | 22.78° C | 41% | 1022.1 hPa | 0 mm | - | 655 W/m² | - |
| 1777498930 | 22.78° C | 37% | 1022.1 hPa | 0 mm | - | 662 W/m² | - |
| 1777498626 | 22.22° C | 40% | 1022.1 hPa | 0 mm | - | 671 W/m² | - |
| 1777498322 | 21.67° C | 40% | 1022 hPa | 0 mm | - | 678 W/m² | - |
| 1777498021 | 21.67° C | 39% | 1022.1 hPa | 0 mm | - | 684 W/m² | - |
| 1777497717 | 20.56° C | 44% | 1022.1 hPa | 0 mm | - | 690 W/m² | - |
| 1777497414 | 22.22° C | 38% | 1022.3 hPa | 0 mm | - | 698 W/m² | - |
| 1777497109 | 22.22° C | 41% | 1022.5 hPa | 0 mm | - | 703 W/m² | - |
| 1777496806 | 22.22° C | 41% | 1022.3 hPa | 0 mm | - | 707 W/m² | - |
| 1777496503 | 21.67° C | 45% | 1022.3 hPa | 0 mm | - | 710 W/m² | - |
| 1777496199 | 21.11° C | 44% | 1022.5 hPa | 0 mm | - | 714 W/m² | - |
| 1777495895 | 20.56° C | 43% | 1022.5 hPa | 0 mm | - | 721 W/m² | - |
| 1777495591 | 20° C | 46% | 1022.5 hPa | 0 mm | - | 725 W/m² | - |
| 1777495287 | 20° C | 45% | 1022.6 hPa | 0 mm | - | 729 W/m² | - |
| 1777494986 | 20° C | 44% | 1022.6 hPa | 0 mm | - | 733 W/m² | - |
| 1777494682 | 21.11° C | 40% | 1022.7 hPa | 0 mm | - | 732 W/m² | - |
* Rain latest hour (hover to see other rain measurements)
** Current wind speed in m/s (hover to see current wind gust speed)